VTBS/BKK METAR and TAF weather

Enter ICAO airport designator
Station Type Date Time Source
VTBS METAR 2022/01/26 13:30 UTC NOAA

VTBS 261330Z 20007KT 9000 FEW020 28/23 Q1010 NOSIG


Station Type Date Time Source
VTBS Decoded METAR 2022/01/26 13:30 UTC NOAA

Chon Buri, Thailand (VTBS) 13-22N 100-59E 2M
Jan 26, 2022 - 08:30 AM EST / 2022.01.26 1330 UTC
Wind: from the SSW (200 degrees) at 8 MPH (7 KT):0
Visibility: 5 mile(s):0
Sky conditions: mostly clear
Temperature: 82 F (28 C)
Dew Point: 73 F (23 C)
Relative Humidity: 74%
Pressure (altimeter): 29.83 in. Hg (1010 hPa)
ob: VTBS 261330Z 20007KT 9000 FEW020 28/23 Q1010 NOSIG
cycle: 13

Station Type Date Time Source
VTBS TAF 2022/01/26 12:00 UTC NOAA

TAF VTBS 261100Z 2612/2718 20005KT 9999 FEW020
BECMG 2622/2624 09005KT 3000 BR
BECMG 2702/2704 19005KT 9999 NSW

Example: see airport list